Terminal Aerodrome Forecast
Issued by NWS

Home | Current Version | Previous Version | Text Only | Print | Product List | Glossary On
Versions: 1 2 3 4 5 6 7 8 9 10 11 12 13 14 15 16 17 18 19 20 21 22 23 24
000
FTUS46 KLOX 192000 AAA
TAFLAX
TAF AMD
KLAX 192053Z 1921/2024 25015KT P6SM FEW045 SCT150 BKN220
     FM200400 VRB03KT P6SM SCT200
     FM200900 VRB03KT 6SM BR BKN010
     FM201300 VRB03KT P6SM BKN015
     FM201700 26006KT P6SM SCT015 BKN200
     FM202000 26012KT P6SM SCT015=

USA.gov is the U.S. government's official web portal to all federal, state and local government web resources and services.